sensor_id;sensor_type;location;lat;lon;timestamp;pressure;altitude;pressure_sealevel;temperature;humidity
31121;BME280;17770;45.966;13.632;2022-10-13T00:00:42;101193.81;;;21.81;53.44
31121;BME280;17770;45.966;13.632;2022-10-13T00:03:08;101178.97;;;21.80;53.43
31121;BME280;17770;45.966;13.632;2022-10-13T00:05:34;101184.22;;;21.80;53.43
31121;BME280;17770;45.966;13.632;2022-10-13T00:08:00;101181.69;;;21.78;53.47
31121;BME280;17770;45.966;13.632;2022-10-13T00:10:47;101179.06;;;21.78;53.61
31121;BME280;17770;45.966;13.632;2022-10-13T00:13:32;101187.91;;;21.77;53.77
31121;BME280;17770;45.966;13.632;2022-10-13T00:15:59;101180.97;;;21.76;53.45
31121;BME280;17770;45.966;13.632;2022-10-13T00:18:29;101181.03;;;21.75;53.59
31121;BME280;17770;45.966;13.632;2022-10-13T00:20:55;101182.81;;;21.74;53.46
31121;BME280;17770;45.966;13.632;2022-10-13T00:23:21;101182.91;;;21.73;53.37
31121;BME280;17770;45.966;13.632;2022-10-13T00:25:50;101185.53;;;21.73;53.48
31121;BME280;17770;45.966;13.632;2022-10-13T00:28:17;101174.06;;;21.74;53.59
31121;BME280;17770;45.966;13.632;2022-10-13T00:30:43;101182.06;;;21.72;53.54
31121;BME280;17770;45.966;13.632;2022-10-13T00:33:10;101181.19;;;21.72;53.35
31121;BME280;17770;45.966;13.632;2022-10-13T00:35:43;101173.41;;;21.70;53.47
31121;BME280;17770;45.966;13.632;2022-10-13T00:38:09;101177.84;;;21.70;53.48
31121;BME280;17770;45.966;13.632;2022-10-13T00:40:42;101178.69;;;21.70;53.35
31121;BME280;17770;45.966;13.632;2022-10-13T00:43:18;101174.47;;;21.68;53.44
31121;BME280;17770;45.966;13.632;2022-10-13T00:45:44;101166.59;;;21.68;53.44
31121;BME280;17770;45.966;13.632;2022-10-13T00:48:11;101170.13;;;21.67;53.36
31121;BME280;17770;45.966;13.632;2022-10-13T00:50:37;101161.44;;;21.66;53.62
31121;BME280;17770;45.966;13.632;2022-10-13T00:53:05;101161.44;;;21.66;53.59
31121;BME280;17770;45.966;13.632;2022-10-13T00:55:32;101153.66;;;21.65;53.63
31121;BME280;17770;45.966;13.632;2022-10-13T00:57:59;101157.97;;;21.66;53.31
31121;BME280;17770;45.966;13.632;2022-10-13T01:00:30;101151.84;;;21.65;53.58
31121;BME280;17770;45.966;13.632;2022-10-13T01:02:57;101155.44;;;21.64;53.51
31121;BME280;17770;45.966;13.632;2022-10-13T01:05:23;101159.84;;;21.64;53.53
31121;BME280;17770;45.966;13.632;2022-10-13T01:07:52;101146.81;;;21.62;53.36
31121;BME280;17770;45.966;13.632;2022-10-13T01:13:08;101144.19;;;21.62;53.52
31121;BME280;17770;45.966;13.632;2022-10-13T01:15:49;101140.81;;;21.60;53.55
31121;BME280;17770;45.966;13.632;2022-10-13T01:23:26;101132.38;;;21.55;53.60
31121;BME280;17770;45.966;13.632;2022-10-13T01:31:26;101120.09;;;21.56;53.49
31121;BME280;17770;45.966;13.632;2022-10-13T01:36:43;101118.31;;;21.56;53.62
31121;BME280;17770;45.966;13.632;2022-10-13T01:39:15;101123.78;;;21.53;53.36
31121;BME280;17770;45.966;13.632;2022-10-13T01:41:48;101122.06;;;21.52;53.41
31121;BME280;17770;45.966;13.632;2022-10-13T01:46:51;101121.22;;;21.52;53.46
31121;BME280;17770;45.966;13.632;2022-10-13T01:49:18;101118.59;;;21.52;53.43
31121;BME280;17770;45.966;13.632;2022-10-13T01:51:46;101111.66;;;21.51;53.43
31121;BME280;17770;45.966;13.632;2022-10-13T01:54:13;101111.75;;;21.49;53.47
31121;BME280;17770;45.966;13.632;2022-10-13T01:56:39;101102.94;;;21.50;53.64
31121;BME280;17770;45.966;13.632;2022-10-13T01:59:06;101105.66;;;21.49;53.63
31121;BME280;17770;45.966;13.632;2022-10-13T02:04:19;101105.75;;;21.47;53.58
31121;BME280;17770;45.966;13.632;2022-10-13T02:07:00;101097.97;;;21.46;53.70
31121;BME280;17770;45.966;13.632;2022-10-13T02:12:15;101088.44;;;21.45;53.70
31121;BME280;17770;45.966;13.632;2022-10-13T02:14:43;101089.19;;;21.47;53.48
31121;BME280;17770;45.966;13.632;2022-10-13T02:17:09;101093.59;;;21.46;53.36
31121;BME280;17770;45.966;13.632;2022-10-13T02:19:37;101089.25;;;21.45;53.63
31121;BME280;17770;45.966;13.632;2022-10-13T02:22:05;101085.81;;;21.45;53.39
31121;BME280;17770;45.966;13.632;2022-10-13T02:24:31;101081.47;;;21.44;53.45
31121;BME280;17770;45.966;13.632;2022-10-13T02:26:57;101082.31;;;21.44;53.40
31121;BME280;17770;45.966;13.632;2022-10-13T02:29:23;101084.19;;;21.42;53.33
31121;BME280;17770;45.966;13.632;2022-10-13T02:31:49;101079.81;;;21.43;53.51
31121;BME280;17770;45.966;13.632;2022-10-13T02:34:15;101080.75;;;21.42;53.79
31121;BME280;17770;45.966;13.632;2022-10-13T02:36:45;101086.91;;;21.41;53.52
31121;BME280;17770;45.966;13.632;2022-10-13T02:39:11;101091.31;;;21.40;53.84
31121;BME280;17770;45.966;13.632;2022-10-13T02:41:37;101088.78;;;21.39;53.69
31121;BME280;17770;45.966;13.632;2022-10-13T02:44:03;101092.16;;;21.41;53.44
31121;BME280;17770;45.966;13.632;2022-10-13T02:46:39;101097.41;;;21.41;53.55
31121;BME280;17770;45.966;13.632;2022-10-13T02:49:05;101090.50;;;21.40;53.52
31121;BME280;17770;45.966;13.632;2022-10-13T02:51:31;101089.75;;;21.38;53.36
31121;BME280;17770;45.966;13.632;2022-10-13T02:53:57;101088.78;;;21.39;53.30
31121;BME280;17770;45.966;13.632;2022-10-13T02:56:23;101085.44;;;21.37;53.18
31121;BME280;17770;45.966;13.632;2022-10-13T02:58:49;101086.28;;;21.37;53.59
31121;BME280;17770;45.966;13.632;2022-10-13T03:01:15;101082.81;;;21.37;53.40
31121;BME280;17770;45.966;13.632;2022-10-13T03:03:41;101092.47;;;21.36;53.53
31121;BME280;17770;45.966;13.632;2022-10-13T03:06:07;101091.63;;;21.36;53.32
31121;BME280;17770;45.966;13.632;2022-10-13T03:08:33;101095.00;;;21.38;53.48
31121;BME280;17770;45.966;13.632;2022-10-13T03:10:59;101092.47;;;21.36;53.38
31121;BME280;17770;45.966;13.632;2022-10-13T03:13:26;101085.53;;;21.35;53.64
31121;BME280;17770;45.966;13.632;2022-10-13T03:15:52;101084.69;;;21.35;53.63
31121;BME280;17770;45.966;13.632;2022-10-13T03:18:17;101083.84;;;21.34;53.35
31121;BME280;17770;45.966;13.632;2022-10-13T03:20:43;101082.16;;;21.33;53.41
31121;BME280;17770;45.966;13.632;2022-10-13T03:23:09;101077.00;;;21.32;53.39
31121;BME280;17770;45.966;13.632;2022-10-13T03:25:35;101077.13;;;21.30;53.17
31121;BME280;17770;45.966;13.632;2022-10-13T03:28:01;101084.88;;;21.32;53.34
31121;BME280;17770;45.966;13.632;2022-10-13T03:30:27;101088.44;;;21.31;53.42
31121;BME280;17770;45.966;13.632;2022-10-13T03:32:53;101085.00;;;21.30;53.64
31121;BME280;17770;45.966;13.632;2022-10-13T03:35:19;101078.97;;;21.28;53.55
31121;BME280;17770;45.966;13.632;2022-10-13T03:37:45;101077.19;;;21.29;53.36
31121;BME280;17770;45.966;13.632;2022-10-13T03:40:11;101080.66;;;21.29;53.52
31121;BME280;17770;45.966;13.632;2022-10-13T03:42:37;101076.47;;;21.27;53.33
31121;BME280;17770;45.966;13.632;2022-10-13T03:45:03;101074.75;;;21.26;53.45
31121;BME280;17770;45.966;13.632;2022-10-13T03:47:35;101073.06;;;21.25;53.28
31121;BME280;17770;45.966;13.632;2022-10-13T03:50:02;101070.34;;;21.26;53.60
31121;BME280;17770;45.966;13.632;2022-10-13T03:52:28;101068.59;;;21.27;53.38
31121;BME280;17770;45.966;13.632;2022-10-13T03:54:54;101073.06;;;21.25;53.30
31121;BME280;17770;45.966;13.632;2022-10-13T03:57:20;101062.59;;;21.25;53.64
31121;BME280;17770;45.966;13.632;2022-10-13T03:59:46;101058.25;;;21.24;53.56
31121;BME280;17770;45.966;13.632;2022-10-13T04:02:11;101069.59;;;21.24;53.25
31121;BME280;17770;45.966;13.632;2022-10-13T04:04:37;101057.44;;;21.23;53.50
31121;BME280;17770;45.966;13.632;2022-10-13T04:07:03;101055.72;;;21.22;53.52
31121;BME280;17770;45.966;13.632;2022-10-13T04:09:29;101053.09;;;21.22;53.13
31121;BME280;17770;45.966;13.632;2022-10-13T04:11:55;101054.91;;;21.22;53.67
31121;BME280;17770;45.966;13.632;2022-10-13T04:14:21;101062.88;;;21.20;53.42
31121;BME280;17770;45.966;13.632;2022-10-13T04:16:47;101055.72;;;21.22;53.26
31121;BME280;17770;45.966;13.632;2022-10-13T04:19:13;101056.69;;;21.21;53.46
31121;BME280;17770;45.966;13.632;2022-10-13T04:21:39;101053.19;;;21.21;53.38
31121;BME280;17770;45.966;13.632;2022-10-13T04:24:06;101057.63;;;21.20;53.50
31121;BME280;17770;45.966;13.632;2022-10-13T04:26:33;101064.56;;;21.21;53.50
31121;BME280;17770;45.966;13.632;2022-10-13T04:29:05;101054.25;;;21.18;53.53
31121;BME280;17770;45.966;13.632;2022-10-13T04:31:31;101062.03;;;21.20;53.24
31121;BME280;17770;45.966;13.632;2022-10-13T04:33:57;101066.41;;;21.19;53.41
31121;BME280;17770;45.966;13.632;2022-10-13T04:36:24;101062.13;;;21.18;53.70
31121;BME280;17770;45.966;13.632;2022-10-13T04:38:50;101063.91;;;21.18;53.59
31121;BME280;17770;45.966;13.632;2022-10-13T04:41:16;101061.38;;;21.16;53.54
31121;BME280;17770;45.966;13.632;2022-10-13T04:43:45;101063.13;;;21.16;53.66
31121;BME280;17770;45.966;13.632;2022-10-13T04:46:12;101057.88;;;21.16;53.50
31121;BME280;17770;45.966;13.632;2022-10-13T04:48:38;101060.50;;;21.16;53.55
31121;BME280;17770;45.966;13.632;2022-10-13T04:51:08;101061.38;;;21.16;53.55
31121;BME280;17770;45.966;13.632;2022-10-13T04:53:34;101058.94;;;21.13;53.72
31121;BME280;17770;45.966;13.632;2022-10-13T04:56:04;101064.09;;;21.15;53.56
31121;BME280;17770;45.966;13.632;2022-10-13T04:58:31;101063.34;;;21.13;53.83
31121;BME280;17770;45.966;13.632;2022-10-13T05:01:00;101053.69;;;21.13;53.50
31121;BME280;17770;45.966;13.632;2022-10-13T05:03:26;101063.34;;;21.13;53.68
31121;BME280;17770;45.966;13.632;2022-10-13T05:05:52;101066.91;;;21.12;53.57
31121;BME280;17770;45.966;13.632;2022-10-13T05:08:18;101063.44;;;21.11;53.54
31121;BME280;17770;45.966;13.632;2022-10-13T05:10:57;101067.00;;;21.10;53.79
31121;BME280;17770;45.966;13.632;2022-10-13T05:13:24;101067.81;;;21.11;53.49
31121;BME280;17770;45.966;13.632;2022-10-13T05:15:50;101071.41;;;21.10;53.75
31121;BME280;17770;45.966;13.632;2022-10-13T05:18:20;101071.41;;;21.10;53.63
31121;BME280;17770;45.966;13.632;2022-10-13T05:20:46;101071.50;;;21.08;53.65
31121;BME280;17770;45.966;13.632;2022-10-13T05:23:13;101069.81;;;21.07;53.74
31121;BME280;17770;45.966;13.632;2022-10-13T05:25:39;101070.63;;;21.08;53.58
31121;BME280;17770;45.966;13.632;2022-10-13T05:28:08;101076.84;;;21.07;53.69
31121;BME280;17770;45.966;13.632;2022-10-13T05:30:34;101077.69;;;21.07;53.53
31121;BME280;17770;45.966;13.632;2022-10-13T05:33:00;101075.97;;;21.06;53.42
31121;BME280;17770;45.966;13.632;2022-10-13T05:35:26;101075.13;;;21.06;53.74
31121;BME280;17770;45.966;13.632;2022-10-13T05:37:52;101063.81;;;21.05;53.71
31121;BME280;17770;45.966;13.632;2022-10-13T05:40:18;101070.84;;;21.05;53.64
31121;BME280;17770;45.966;13.632;2022-10-13T05:42:48;101064.00;;;21.02;53.66
31121;BME280;17770;45.966;13.632;2022-10-13T05:45:14;101069.25;;;21.02;53.76
31121;BME280;17770;45.966;13.632;2022-10-13T05:47:41;101068.31;;;21.03;53.60
31121;BME280;17770;45.966;13.632;2022-10-13T05:50:07;101061.38;;;21.02;53.61
31121;BME280;17770;45.966;13.632;2022-10-13T05:52:33;101070.06;;;21.03;53.37
31121;BME280;17770;45.966;13.632;2022-10-13T05:54:59;101070.19;;;21.01;53.58
31121;BME280;17770;45.966;13.632;2022-10-13T05:57:27;101066.63;;;21.02;53.57
31121;BME280;17770;45.966;13.632;2022-10-13T05:59:56;101062.22;;;21.03;53.76
31121;BME280;17770;45.966;13.632;2022-10-13T06:02:25;101064.84;;;21.03;53.75
31121;BME280;17770;45.966;13.632;2022-10-13T06:04:52;101071.88;;;21.02;53.68
31121;BME280;17770;45.966;13.632;2022-10-13T06:07:20;101064.94;;;21.01;53.45
31121;BME280;17770;45.966;13.632;2022-10-13T06:09:46;101073.75;;;21.00;53.68
31121;BME280;17770;45.966;13.632;2022-10-13T06:12:12;101069.41;;;20.99;53.79
31121;BME280;17770;45.966;13.632;2022-10-13T06:14:38;101073.00;;;20.98;53.62
31121;BME280;17770;45.966;13.632;2022-10-13T06:17:10;101066.06;;;20.97;53.56
31121;BME280;17770;45.966;13.632;2022-10-13T06:19:36;101066.13;;;20.96;53.76
31121;BME280;17770;45.966;13.632;2022-10-13T06:22:06;101073.94;;;20.97;53.50
31121;BME280;17770;45.966;13.632;2022-10-13T06:24:32;101073.06;;;20.97;53.88
31121;BME280;17770;45.966;13.632;2022-10-13T06:26:57;101064.34;;;20.96;53.76
31121;BME280;17770;45.966;13.632;2022-10-13T06:29:23;101062.66;;;20.95;53.80
31121;BME280;17770;45.966;13.632;2022-10-13T06:31:49;101059.28;;;20.93;53.66
31121;BME280;17770;45.966;13.632;2022-10-13T06:34:15;101057.59;;;20.92;53.75
31121;BME280;17770;45.966;13.632;2022-10-13T06:36:43;101064.63;;;20.92;53.68
31121;BME280;17770;45.966;13.632;2022-10-13T06:39:10;101059.38;;;20.92;53.87
31121;BME280;17770;45.966;13.632;2022-10-13T06:41:36;101060.31;;;20.91;53.82
31121;BME280;17770;45.966;13.632;2022-10-13T06:44:02;101063.88;;;20.90;53.60
31121;BME280;17770;45.966;13.632;2022-10-13T06:46:28;101065.56;;;20.91;53.62
31121;BME280;17770;45.966;13.632;2022-10-13T06:48:54;101060.38;;;20.89;53.73
31121;BME280;17770;45.966;13.632;2022-10-13T06:51:20;101067.44;;;20.89;53.61
31121;BME280;17770;45.966;13.632;2022-10-13T06:53:46;101063.09;;;20.88;53.86
31121;BME280;17770;45.966;13.632;2022-10-13T06:56:12;101063.09;;;20.88;53.41
31121;BME280;17770;45.966;13.632;2022-10-13T06:58:38;101061.44;;;20.87;53.48
31121;BME280;17770;45.966;13.632;2022-10-13T07:01:05;101069.41;;;20.85;53.69
31121;BME280;17770;45.966;13.632;2022-10-13T07:03:31;101064.06;;;20.87;53.55
31121;BME280;17770;45.966;13.632;2022-10-13T07:06:00;101068.44;;;20.86;53.52
31121;BME280;17770;45.966;13.632;2022-10-13T07:08:26;101064.91;;;20.87;53.73
31121;BME280;17770;45.966;13.632;2022-10-13T07:10:52;101070.97;;;20.88;53.95
31121;BME280;17770;45.966;13.632;2022-10-13T07:13:18;101068.25;;;20.89;53.89
31121;BME280;17770;45.966;13.632;2022-10-13T07:15:44;101068.25;;;20.89;53.63
31121;BME280;17770;45.966;13.632;2022-10-13T07:18:09;101068.25;;;20.89;53.64
31121;BME280;17770;45.966;13.632;2022-10-13T07:20:35;101066.59;;;20.88;53.69
31121;BME280;17770;45.966;13.632;2022-10-13T07:23:01;101063.88;;;20.90;53.72
31121;BME280;17770;45.966;13.632;2022-10-13T07:25:27;101074.44;;;20.88;53.73
31121;BME280;17770;45.966;13.632;2022-10-13T07:27:53;101068.34;;;20.88;53.47
31121;BME280;17770;45.966;13.632;2022-10-13T07:30:19;101064.91;;;20.87;53.80
31121;BME280;17770;45.966;13.632;2022-10-13T07:32:46;101060.50;;;20.88;53.64
31121;BME280;17770;45.966;13.632;2022-10-13T07:35:12;101067.53;;;20.87;53.55
31121;BME280;17770;45.966;13.632;2022-10-13T07:37:38;101066.69;;;20.87;53.56
31121;BME280;17770;45.966;13.632;2022-10-13T07:40:04;101071.16;;;20.85;53.34
31121;BME280;17770;45.966;13.632;2022-10-13T07:42:30;101059.09;;;20.82;53.40
31121;BME280;17770;45.966;13.632;2022-10-13T07:44:56;101056.47;;;20.82;53.52
31121;BME280;17770;45.966;13.632;2022-10-13T07:47:24;101055.63;;;20.82;53.89
31121;BME280;17770;45.966;13.632;2022-10-13T07:49:50;101057.41;;;20.81;53.72
31121;BME280;17770;45.966;13.632;2022-10-13T07:52:16;101058.25;;;20.82;53.68
31121;BME280;17770;45.966;13.632;2022-10-13T07:54:42;101051.34;;;20.81;53.42
31121;BME280;17770;45.966;13.632;2022-10-13T07:57:08;101060.97;;;20.80;53.56
31121;BME280;17770;45.966;13.632;2022-10-13T07:59:33;101059.28;;;20.79;53.44
31121;BME280;17770;45.966;13.632;2022-10-13T08:01:59;101053.09;;;20.80;53.79
31121;BME280;17770;45.966;13.632;2022-10-13T08:04:32;101056.66;;;20.79;53.31
31121;BME280;17770;45.966;13.632;2022-10-13T08:06:58;101058.34;;;20.80;53.60
31121;BME280;17770;45.966;13.632;2022-10-13T08:09:25;101050.47;;;20.80;53.48
31121;BME280;17770;45.966;13.632;2022-10-13T08:11:52;101049.53;;;20.81;53.18
31121;BME280;17770;45.966;13.632;2022-10-13T08:14:18;101046.19;;;20.79;53.40
31121;BME280;17770;45.966;13.632;2022-10-13T08:16:44;101047.00;;;20.80;53.34
31121;BME280;17770;45.966;13.632;2022-10-13T08:19:11;101044.38;;;20.80;53.32
31121;BME280;17770;45.966;13.632;2022-10-13T08:21:37;101042.59;;;20.80;53.18
31121;BME280;17770;45.966;13.632;2022-10-13T08:24:04;101047.00;;;20.80;53.29
31121;BME280;17770;45.966;13.632;2022-10-13T08:26:30;101047.00;;;20.80;53.32
31121;BME280;17770;45.966;13.632;2022-10-13T08:28:55;101045.13;;;20.82;53.33
31121;BME280;17770;45.966;13.632;2022-10-13T08:31:21;101044.28;;;20.81;53.12
31121;BME280;17770;45.966;13.632;2022-10-13T08:33:48;101038.94;;;20.83;53.09
31121;BME280;17770;45.966;13.632;2022-10-13T08:36:14;101038.13;;;20.82;53.22
31121;BME280;17770;45.966;13.632;2022-10-13T08:38:40;101032.88;;;20.82;53.24
31121;BME280;17770;45.966;13.632;2022-10-13T08:43:38;101036.22;;;20.84;53.26
31121;BME280;17770;45.966;13.632;2022-10-13T08:46:03;101035.31;;;20.85;52.93
31121;BME280;17770;45.966;13.632;2022-10-13T08:48:33;101026.50;;;20.86;53.23
31121;BME280;17770;45.966;13.632;2022-10-13T08:51:01;101022.09;;;20.87;53.13
31121;BME280;17770;45.966;13.632;2022-10-13T08:56:08;101022.94;;;20.87;53.15
31121;BME280;17770;45.966;13.632;2022-10-13T08:58:36;101024.72;;;20.87;53.04
31121;BME280;17770;45.966;13.632;2022-10-13T09:03:29;101033.25;;;20.90;52.88
31121;BME280;17770;45.966;13.632;2022-10-13T09:06:04;101027.06;;;20.91;53.07
31121;BME280;17770;45.966;13.632;2022-10-13T09:08:35;101029.69;;;20.91;52.95
31121;BME280;17770;45.966;13.632;2022-10-13T09:11:02;101036.63;;;20.92;52.73
31121;BME280;17770;45.966;13.632;2022-10-13T09:13:28;101027.91;;;20.92;53.25
31121;BME280;17770;45.966;13.632;2022-10-13T09:15:55;101031.28;;;20.94;52.94
31121;BME280;17770;45.966;13.632;2022-10-13T09:18:26;101026.03;;;20.94;52.92
31121;BME280;17770;45.966;13.632;2022-10-13T09:20:57;101019.75;;;20.96;52.85
31121;BME280;17770;45.966;13.632;2022-10-13T09:23:33;101024.09;;;20.97;52.95
31121;BME280;17770;45.966;13.632;2022-10-13T09:25:59;101020.59;;;20.97;52.95
31121;BME280;17770;45.966;13.632;2022-10-13T09:28:31;101021.28;;;21.00;53.01
31121;BME280;17770;45.966;13.632;2022-10-13T09:33:26;101015.94;;;21.02;53.10
31121;BME280;17770;45.966;13.632;2022-10-13T09:38:23;101021.09;;;21.03;52.85
31121;BME280;17770;45.966;13.632;2022-10-13T09:40:55;101013.13;;;21.05;52.77
31121;BME280;17770;45.966;13.632;2022-10-13T09:46:17;101019.97;;;21.07;52.80
31121;BME280;17770;45.966;13.632;2022-10-13T09:48:50;101018.19;;;21.08;52.81
31121;BME280;17770;45.966;13.632;2022-10-13T09:53:59;101011.16;;;21.08;52.51
31121;BME280;17770;45.966;13.632;2022-10-13T09:56:40;101003.19;;;21.10;52.55
31121;BME280;17770;45.966;13.632;2022-10-13T10:01:46;101001.13;;;21.15;52.73
31121;BME280;17770;45.966;13.632;2022-10-13T10:04:13;100994.22;;;21.14;52.67
31121;BME280;17770;45.966;13.632;2022-10-13T10:06:41;100992.22;;;21.17;52.57
31121;BME280;17770;45.966;13.632;2022-10-13T10:11:42;100993.81;;;21.20;52.63
31121;BME280;17770;45.966;13.632;2022-10-13T10:14:14;100992.03;;;21.20;52.76
31121;BME280;17770;45.966;13.632;2022-10-13T10:16:42;100987.50;;;21.22;52.73
31121;BME280;17770;45.966;13.632;2022-10-13T10:19:19;100988.38;;;21.23;52.32
31121;BME280;17770;45.966;13.632;2022-10-13T10:24:18;100986.38;;;21.26;52.46
31121;BME280;17770;45.966;13.632;2022-10-13T10:34:28;100976.25;;;21.34;52.60
31121;BME280;17770;45.966;13.632;2022-10-13T10:45:02;100967.78;;;21.43;52.19
31121;BME280;17770;45.966;13.632;2022-10-13T10:47:33;100956.44;;;21.43;52.32
31121;BME280;17770;45.966;13.632;2022-10-13T10:50:03;100958.88;;;21.46;52.48
31121;BME280;17770;45.966;13.632;2022-10-13T10:52:33;100956.03;;;21.49;52.71
31121;BME280;17770;45.966;13.632;2022-10-13T10:55:12;100942.00;;;21.50;52.29
31121;BME280;17770;45.966;13.632;2022-10-13T11:00:20;100935.56;;;21.54;52.24
31121;BME280;17770;45.966;13.632;2022-10-13T11:05:15;100928.44;;;21.56;52.16
31121;BME280;17770;45.966;13.632;2022-10-13T11:15:10;100916.63;;;21.63;52.30
31121;BME280;17770;45.966;13.632;2022-10-13T11:17:39;100915.66;;;21.64;52.29
31121;BME280;17770;45.966;13.632;2022-10-13T11:27:59;100904.78;;;21.70;52.60
31121;BME280;17770;45.966;13.632;2022-10-13T11:31:46;100901.94;;;21.73;52.54
31121;BME280;17770;45.966;13.632;2022-10-13T11:33:33;100895.53;;;21.77;52.16
31121;BME280;17770;45.966;13.632;2022-10-13T11:38:44;100890.94;;;21.80;52.39
31121;BME280;17770;45.966;13.632;2022-10-13T11:41:17;100887.06;;;21.86;52.46
31121;BME280;17770;45.966;13.632;2022-10-13T11:54:30;100865.53;;;21.93;52.36
31121;BME280;17770;45.966;13.632;2022-10-13T11:56:57;100867.94;;;21.96;52.52
31121;BME280;17770;45.966;13.632;2022-10-13T11:59:25;100865.31;;;21.96;52.62
31121;BME280;17770;45.966;13.632;2022-10-13T12:01:56;100858.06;;;22.00;52.62
31121;BME280;17770;45.966;13.632;2022-10-13T12:04:23;100847.53;;;22.00;52.51
31121;BME280;17770;45.966;13.632;2022-10-13T12:06:54;100851.75;;;22.03;52.82
31121;BME280;17770;45.966;13.632;2022-10-13T12:09:20;100847.25;;;22.05;52.75
31121;BME280;17770;45.966;13.632;2022-10-13T12:11:54;100845.34;;;22.07;52.64
31121;BME280;17770;45.966;13.632;2022-10-13T12:14:21;100839.97;;;22.08;52.86
31121;BME280;17770;45.966;13.632;2022-10-13T12:16:52;100844.19;;;22.11;52.73
31121;BME280;17770;45.966;13.632;2022-10-13T12:19:19;100840.59;;;22.12;52.69
31121;BME280;17770;45.966;13.632;2022-10-13T12:21:55;100834.31;;;22.14;52.98
31121;BME280;17770;45.966;13.632;2022-10-13T12:24:22;100831.56;;;22.16;52.84
31121;BME280;17770;45.966;13.632;2022-10-13T12:26:48;100836.72;;;22.17;53.08
31121;BME280;17770;45.966;13.632;2022-10-13T12:29:14;100835.66;;;22.20;52.75
31121;BME280;17770;45.966;13.632;2022-10-13T12:31:43;100832.94;;;22.21;53.02
31121;BME280;17770;45.966;13.632;2022-10-13T12:34:13;100828.41;;;22.23;52.85
31121;BME280;17770;45.966;13.632;2022-10-13T12:36:42;100820.50;;;22.23;52.39
31121;BME280;17770;45.966;13.632;2022-10-13T12:39:11;100822.31;;;22.23;52.98
31121;BME280;17770;45.966;13.632;2022-10-13T12:41:39;100823.16;;;22.23;53.01
31121;BME280;17770;45.966;13.632;2022-10-13T12:44:07;100822.09;;;22.26;53.21
31121;BME280;17770;45.966;13.632;2022-10-13T12:49:06;100816.63;;;22.29;53.03
31121;BME280;17770;45.966;13.632;2022-10-13T12:51:37;100816.63;;;22.29;52.91
31121;BME280;17770;45.966;13.632;2022-10-13T12:54:07;100815.66;;;22.30;53.39
31121;BME280;17770;45.966;13.632;2022-10-13T12:56:34;100815.59;;;22.31;53.38
31121;BME280;17770;45.966;13.632;2022-10-13T12:59:00;100810.22;;;22.33;52.86
31121;BME280;17770;45.966;13.632;2022-10-13T13:01:29;100813.56;;;22.35;53.14
31121;BME280;17770;45.966;13.632;2022-10-13T13:04:24;100810.00;;;22.36;53.33
31121;BME280;17770;45.966;13.632;2022-10-13T13:06:52;100808.94;;;22.38;53.34
31121;BME280;17770;45.966;13.632;2022-10-13T13:14:33;100804.06;;;22.45;53.99
31121;BME280;17770;45.966;13.632;2022-10-13T13:17:03;100796.91;;;22.47;53.46
31121;BME280;17770;45.966;13.632;2022-10-13T13:19:30;100797.66;;;22.49;53.23
31121;BME280;17770;45.966;13.632;2022-10-13T13:21:57;100792.28;;;22.50;53.14
31121;BME280;17770;45.966;13.632;2022-10-13T13:24:22;100793.94;;;22.51;53.25
31121;BME280;17770;45.966;13.632;2022-10-13T13:26:48;100789.34;;;22.55;53.19
31121;BME280;17770;45.966;13.632;2022-10-13T13:29:15;100785.78;;;22.56;53.12
31121;BME280;17770;45.966;13.632;2022-10-13T13:31:41;100789.97;;;22.58;53.16
31121;BME280;17770;45.966;13.632;2022-10-13T13:34:07;100789.13;;;22.58;53.97
31121;BME280;17770;45.966;13.632;2022-10-13T13:36:33;100788.94;;;22.61;53.72
31121;BME280;17770;45.966;13.632;2022-10-13T13:38:58;100791.34;;;22.64;53.75
31121;BME280;17770;45.966;13.632;2022-10-13T13:41:24;100791.22;;;22.65;54.04
31121;BME280;17770;45.966;13.632;2022-10-13T13:43:52;100787.63;;;22.66;53.71
31121;BME280;17770;45.966;13.632;2022-10-13T13:46:19;100783.94;;;22.69;53.41
31121;BME280;17770;45.966;13.632;2022-10-13T13:48:46;100793.38;;;22.71;53.53
31121;BME280;17770;45.966;13.632;2022-10-13T13:51:12;100790.75;;;22.71;53.49
31121;BME280;17770;45.966;13.632;2022-10-13T13:53:38;100794.13;;;22.73;53.85
31121;BME280;17770;45.966;13.632;2022-10-13T13:56:04;100798.31;;;22.76;53.87
31121;BME280;17770;45.966;13.632;2022-10-13T13:58:29;100789.59;;;22.75;53.42
31121;BME280;17770;45.966;13.632;2022-10-13T14:00:57;100794.75;;;22.77;52.97
31121;BME280;17770;45.966;13.632;2022-10-13T14:03:23;100784.22;;;22.77;53.06
31121;BME280;17770;45.966;13.632;2022-10-13T14:05:49;100778.13;;;22.76;53.09
31121;BME280;17770;45.966;13.632;2022-10-13T14:08:17;100778.84;;;22.78;53.45
31121;BME280;17770;45.966;13.632;2022-10-13T14:10:43;100776.44;;;22.75;53.01
31121;BME280;17770;45.966;13.632;2022-10-13T14:13:10;100778.97;;;22.77;52.66
31121;BME280;17770;45.966;13.632;2022-10-13T14:15:36;100783.25;;;22.78;52.54
31121;BME280;17770;45.966;13.632;2022-10-13T14:18:02;100780.41;;;22.81;52.83
31121;BME280;17770;45.966;13.632;2022-10-13T14:20:28;100782.22;;;22.80;52.87
31121;BME280;17770;45.966;13.632;2022-10-13T14:22:54;100776.94;;;22.80;52.71
31121;BME280;17770;45.966;13.632;2022-10-13T14:25:19;100774.09;;;22.83;52.83
31121;BME280;17770;45.966;13.632;2022-10-13T14:27:45;100773.25;;;22.83;52.47
31121;BME280;17770;45.966;13.632;2022-10-13T14:30:11;100780.19;;;22.84;52.43